Time;durP1;ratioP1;P1;durP2;ratioP2;P2;SDS_P1;SDS_P2;PMS_P1;PMS_P2;Temp;Humidity;BMP_temperature;BMP_pressure;BME280_temperature;BME280_humidity;BME280_pressure;Samples;Min_cycle;Max_cycle;Signal;HPM_P1;HPM_P2
2022/07/08 00:01:42;;;;;;;10.50;7.17;;;13.60;99.90;;;;;;5077614;28;20218;-75
2022/07/08 00:04:11;;;;;;;11.83;6.63;;;13.70;99.90;;;;;;5078313;28;20215;-77
2022/07/08 00:06:39;;;;;;;8.57;6.97;;;13.60;99.90;;;;;;5077635;28;20306;-78
2022/07/08 00:09:10;;;;;;;9.27;7.50;;;13.60;99.90;;;;;;5077913;28;20235;-79
2022/07/08 00:11:39;;;;;;;9.17;6.90;;;13.70;99.90;;;;;;5077675;28;20231;-73
2022/07/08 00:14:07;;;;;;;9.77;7.10;;;13.60;99.90;;;;;;5069577;28;20239;-74
2022/07/08 00:16:40;;;;;;;8.33;7.17;;;13.60;99.90;;;;;;5074000;28;20207;-76
2022/07/08 00:19:08;;;;;;;13.37;7.60;;;13.60;99.90;;;;;;5066298;28;20274;-77
2022/07/08 00:21:36;;;;;;;11.67;7.40;;;13.60;99.90;;;;;;5074465;28;20249;-76
2022/07/08 00:24:06;;;;;;;11.87;7.23;;;13.60;99.90;;;;;;5074619;28;20324;-74
2022/07/08 00:26:35;;;;;;;8.07;6.77;;;13.60;99.90;;;;;;5074155;28;20295;-74
2022/07/08 00:29:04;;;;;;;12.77;7.10;;;13.60;99.90;;;;;;5074386;28;20239;-74
2022/07/08 00:31:32;;;;;;;8.60;6.40;;;13.60;99.90;;;;;;5077254;28;20691;-80
2022/07/08 00:34:01;;;;;;;9.93;7.33;;;13.50;99.90;;;;;;5074856;28;20203;-73
2022/07/08 00:36:29;;;;;;;7.37;6.30;;;13.60;99.90;;;;;;5074317;28;20211;-79
2022/07/08 00:38:57;;;;;;;11.20;7.33;;;13.60;99.90;;;;;;5074832;28;20219;-75
2022/07/08 00:41:26;;;;;;;11.77;6.83;;;13.60;99.90;;;;;;5075458;28;20243;-75
2022/07/08 00:43:55;;;;;;;9.20;7.40;;;13.60;99.90;;;;;;5076508;28;20266;-76
2022/07/08 00:46:24;;;;;;;10.17;6.70;;;13.60;99.90;;;;;;5075952;28;20322;-76
2022/07/08 00:48:52;;;;;;;9.43;6.90;;;13.60;99.90;;;;;;5075762;28;20218;-75
2022/07/08 00:51:20;;;;;;;10.50;6.63;;;13.50;99.90;;;;;;5084541;28;20243;-75
2022/07/08 00:53:52;;;;;;;10.07;7.53;;;13.50;99.90;;;;;;5080892;28;20243;-76
2022/07/08 00:56:20;;;;;;;8.87;7.80;;;13.50;99.90;;;;;;5074838;28;20280;-74
2022/07/08 00:58:50;;;;;;;8.97;7.47;;;13.60;99.90;;;;;;5077186;28;20314;-80
2022/07/08 01:01:20;;;;;;;8.07;6.70;;;13.60;99.90;;;;;;5075703;28;20288;-77
2022/07/08 01:03:50;;;;;;;9.43;6.93;;;13.60;99.90;;;;;;5078222;28;20211;-78
2022/07/08 01:06:18;;;;;;;11.33;8.00;;;13.60;99.90;;;;;;5077519;28;20219;-77
2022/07/08 01:08:46;;;;;;;15.77;7.30;;;13.60;99.90;;;;;;5077964;28;20252;-78
2022/07/08 01:11:15;;;;;;;8.50;7.37;;;13.50;99.90;;;;;;5076348;28;20211;-76
2022/07/08 01:13:44;;;;;;;11.00;7.30;;;13.60;99.90;;;;;;5073786;28;20728;-75
2022/07/08 01:16:12;;;;;;;8.57;6.70;;;13.60;99.90;;;;;;5073337;28;20662;-77
2022/07/08 01:18:42;;;;;;;11.40;7.30;;;13.50;99.90;;;;;;5073867;28;20232;-76
2022/07/08 01:21:12;;;;;;;8.60;7.30;;;13.50;99.90;;;;;;5073860;28;20211;-75
2022/07/08 01:23:40;;;;;;;13.37;7.70;;;13.50;99.90;;;;;;5073496;28;20270;-76
2022/07/08 01:26:10;;;;;;;8.80;6.87;;;13.60;99.90;;;;;;5073573;28;20310;-75
2022/07/08 01:28:39;;;;;;;9.33;7.07;;;13.60;99.90;;;;;;5073688;28;20241;-74
2022/07/08 01:31:08;;;;;;;12.13;7.47;;;13.50;99.90;;;;;;5073074;28;20677;-76
2022/07/08 01:33:37;;;;;;;10.20;6.87;;;13.60;99.90;;;;;;5073279;28;20290;-75
2022/07/08 01:36:06;;;;;;;8.10;7.30;;;13.60;99.90;;;;;;5072753;28;20238;-76
2022/07/08 01:38:36;;;;;;;8.77;6.67;;;13.60;99.90;;;;;;5072761;28;20318;-76
2022/07/08 01:41:04;;;;;;;9.13;6.43;;;13.60;99.90;;;;;;5072740;28;20222;-74
2022/07/08 01:43:33;;;;;;;9.10;5.67;;;13.60;99.90;;;;;;5072978;28;20235;-78
2022/07/08 01:46:02;;;;;;;7.80;4.33;;;13.60;99.90;;;;;;5072415;28;20713;-79
2022/07/08 01:48:30;;;;;;;7.13;3.90;;;13.50;99.90;;;;;;5073217;28;20210;-78
2022/07/08 01:50:59;;;;;;;7.23;2.83;;;13.40;99.90;;;;;;5072307;28;20250;-75
2022/07/08 01:53:27;;;;;;;6.90;2.40;;;13.30;99.90;;;;;;5072253;28;20203;-76
2022/07/08 01:55:57;;;;;;;5.93;2.70;;;13.20;99.90;;;;;;5071953;28;20752;-78
2022/07/08 01:58:25;;;;;;;14.33;3.10;;;12.90;99.90;;;;;;5072274;28;20271;-78
2022/07/08 02:00:54;;;;;;;7.23;2.70;;;12.70;99.90;;;;;;5072010;28;20299;-77
2022/07/08 02:03:22;;;;;;;7.77;2.70;;;12.70;99.90;;;;;;5071928;28;20292;-78
2022/07/08 02:05:50;;;;;;;7.70;2.83;;;12.60;99.90;;;;;;5072174;28;20231;-78
2022/07/08 02:08:19;;;;;;;10.60;3.10;;;12.40;99.90;;;;;;5072216;28;20268;-78
2022/07/08 02:13:34;;;;;;;8.57;2.90;;;12.30;99.90;;;;;;5071891;28;20187;-78
2022/07/08 02:16:02;;;;;;;7.87;3.13;;;12.30;99.90;;;;;;5072241;28;20211;-77
2022/07/08 02:18:31;;;;;;;8.93;3.40;;;12.30;99.90;;;;;;5074291;28;20230;-77
2022/07/08 02:21:00;;;;;;;8.63;3.30;;;12.30;99.90;;;;;;5071354;28;20298;-78
2022/07/08 02:23:28;;;;;;;8.97;3.50;;;12.20;99.90;;;;;;5071623;28;20212;-76
2022/07/08 02:25:56;;;;;;;13.97;3.67;;;12.30;99.90;;;;;;5071926;28;20250;-77
2022/07/08 02:28:25;;;;;;;10.83;3.50;;;12.20;99.90;;;;;;5071675;28;20207;-78
2022/07/08 02:30:55;;;;;;;9.37;3.57;;;12.20;99.90;;;;;;5071405;28;20214;-75
2022/07/08 02:33:23;;;;;;;7.57;3.10;;;12.10;99.90;;;;;;5071590;28;20634;-75
2022/07/08 02:35:51;;;;;;;11.00;3.87;;;12.10;99.90;;;;;;5072616;28;20294;-73
2022/07/08 02:38:20;;;;;;;10.13;3.47;;;12.00;99.90;;;;;;5071971;28;20296;-76
2022/07/08 02:40:48;;;;;;;11.30;3.03;;;12.00;99.90;;;;;;5079187;28;20230;-77
2022/07/08 02:43:16;;;;;;;10.30;2.93;;;11.90;99.90;;;;;;5078288;28;20219;-74
2022/07/08 02:45:44;;;;;;;7.30;2.40;;;11.90;99.90;;;;;;5076105;28;20259;-76
2022/07/08 02:48:14;;;;;;;9.60;3.07;;;12.00;99.90;;;;;;5073419;28;20207;-77
2022/07/08 02:50:42;;;;;;;9.97;2.57;;;11.90;99.90;;;;;;5071544;28;20216;-74
2022/07/08 02:53:10;;;;;;;11.10;3.13;;;11.80;99.90;;;;;;5071531;28;20298;-75
2022/07/08 02:55:38;;;;;;;8.87;3.03;;;11.80;99.90;;;;;;5071589;28;20207;-75
2022/07/08 02:58:06;;;;;;;10.90;3.07;;;11.80;99.90;;;;;;5071646;28;20246;-75
2022/07/08 03:00:35;;;;;;;9.00;2.63;;;11.80;99.90;;;;;;5071330;28;20749;-77
2022/07/08 03:03:03;;;;;;;8.03;2.87;;;11.70;99.90;;;;;;5071520;28;20634;-74
2022/07/08 03:05:32;;;;;;;8.70;2.80;;;11.70;99.90;;;;;;5071789;28;20246;-76
2022/07/08 03:08:01;;;;;;;8.73;2.80;;;11.70;99.90;;;;;;5071179;28;20266;-75
2022/07/08 03:10:29;;;;;;;13.40;3.13;;;11.70;99.90;;;;;;5071541;28;20231;-76
2022/07/08 03:12:57;;;;;;;10.07;2.50;;;11.60;99.90;;;;;;5071329;28;20258;-78
2022/07/08 03:15:26;;;;;;;10.10;2.70;;;11.50;99.90;;;;;;5071622;28;20257;-75
2022/07/08 03:17:54;;;;;;;11.93;2.83;;;11.60;99.90;;;;;;5071888;28;20235;-76
2022/07/08 03:20:23;;;;;;;10.13;3.03;;;11.50;99.90;;;;;;5072889;28;20573;-75
2022/07/08 03:22:52;;;;;;;10.20;2.90;;;11.50;99.90;;;;;;5073617;28;20211;-75
2022/07/08 03:25:20;;;;;;;12.70;2.97;;;11.40;99.90;;;;;;5074303;28;20594;-75
2022/07/08 03:27:49;;;;;;;10.73;3.20;;;11.40;99.90;;;;;;5077869;28;20238;-74
2022/07/08 03:30:17;;;;;;;9.07;2.63;;;11.40;99.90;;;;;;5074557;28;20630;-76
2022/07/08 03:32:45;;;;;;;9.60;2.83;;;11.40;99.90;;;;;;5073596;28;20731;-77
2022/07/08 03:35:14;;;;;;;10.30;3.20;;;11.40;99.90;;;;;;5070134;28;20239;-76
2022/07/08 03:37:42;;;;;;;9.20;2.90;;;11.40;99.90;;;;;;5068020;28;20749;-74
2022/07/08 03:42:59;;;;;;;9.87;2.80;;;11.40;99.90;;;;;;5070128;28;20215;-77
2022/07/08 03:45:27;;;;;;;9.33;2.63;;;11.40;99.90;;;;;;5071593;28;20259;-76
2022/07/08 03:47:56;;;;;;;8.03;3.20;;;11.40;99.90;;;;;;5070836;28;20203;-76
2022/07/08 03:50:24;;;;;;;11.30;3.20;;;11.30;99.90;;;;;;5071683;28;20212;-76
2022/07/08 03:52:52;;;;;;;12.67;3.33;;;11.30;99.90;;;;;;5074940;28;20214;-76
2022/07/08 03:55:24;;;;;;;8.20;3.17;;;11.30;99.90;;;;;;5074327;28;20265;-74
2022/07/08 03:57:52;;;;;;;14.87;3.30;;;11.30;99.90;;;;;;5074650;28;20231;-77
2022/07/08 04:00:20;;;;;;;6.33;2.60;;;11.40;99.90;;;;;;5074965;28;20318;-75
2022/07/08 04:02:49;;;;;;;10.60;2.90;;;11.40;99.90;;;;;;5074847;28;20230;-76
2022/07/08 04:05:17;;;;;;;6.80;2.63;;;11.30;99.90;;;;;;5074434;28;20735;-76
2022/07/08 04:07:45;;;;;;;8.20;2.90;;;11.40;99.90;;;;;;5074806;28;20223;-74
2022/07/08 04:10:16;;;;;;;8.33;3.10;;;11.30;99.90;;;;;;5073844;28;20630;-76
2022/07/08 04:12:46;;;;;;;9.83;2.90;;;11.40;99.90;;;;;;5074619;28;20212;-76
2022/07/08 04:15:14;;;;;;;10.10;3.23;;;11.40;99.90;;;;;;5074289;28;20247;-76
2022/07/08 04:17:42;;;;;;;9.33;3.10;;;11.50;99.90;;;;;;5064165;28;20212;-77
2022/07/08 04:20:11;;;;;;;10.97;3.40;;;11.50;99.90;;;;;;5053686;28;20278;-78
2022/07/08 04:22:40;;;;;;;13.53;3.00;;;11.50;99.90;;;;;;5054551;28;20274;-77
2022/07/08 04:25:09;;;;;;;9.67;3.07;;;11.50;99.90;;;;;;5070555;28;20284;-78
2022/07/08 04:27:37;;;;;;;12.63;3.10;;;11.50;99.90;;;;;;5073408;28;20235;-77
2022/07/08 04:30:08;;;;;;;8.33;2.70;;;11.40;99.90;;;;;;5073480;28;20231;-76
2022/07/08 04:32:37;;;;;;;10.97;3.00;;;11.40;99.90;;;;;;5073840;28;20203;-78
2022/07/08 04:35:06;;;;;;;10.03;2.60;;;11.40;99.90;;;;;;5074139;28;20320;-77
2022/07/08 04:37:34;;;;;;;10.83;2.80;;;11.40;99.90;;;;;;5072853;28;20199;-79
2022/07/08 04:40:03;;;;;;;5.43;2.33;;;11.40;99.90;;;;;;5072411;28;20223;-78
2022/07/08 04:42:31;;;;;;;8.77;2.83;;;11.30;99.90;;;;;;5073224;28;20247;-76
2022/07/08 04:44:59;;;;;;;8.73;2.77;;;11.30;99.90;;;;;;5073166;28;20215;-79
2022/07/08 04:47:29;;;;;;;7.63;2.60;;;11.30;99.90;;;;;;5073271;28;20207;-79
2022/07/08 04:49:57;;;;;;;12.37;2.80;;;11.30;99.90;;;;;;5068000;28;20334;-79
2022/07/08 04:52:25;;;;;;;9.67;2.70;;;11.30;99.90;;;;;;5073928;28;20617;-77
2022/07/08 04:54:53;;;;;;;8.37;2.90;;;11.30;99.90;;;;;;5073564;28;20246;-77
2022/07/08 04:57:22;;;;;;;8.27;2.60;;;11.30;99.90;;;;;;5073704;28;20253;-77
2022/07/08 04:59:52;;;;;;;9.17;2.60;;;11.30;99.90;;;;;;5072842;28;20735;-79
2022/07/08 05:02:20;;;;;;;8.33;2.40;;;11.30;99.90;;;;;;5072625;28;20203;-77
2022/07/08 05:04:50;;;;;;;10.60;2.57;;;11.30;99.90;;;;;;5073767;28;20257;-78
2022/07/08 05:07:19;;;;;;;9.57;2.60;;;11.30;99.90;;;;;;5073353;28;20294;-78
2022/07/08 05:09:47;;;;;;;5.30;2.40;;;11.30;99.90;;;;;;5073169;28;20764;-74
2022/07/08 05:12:15;;;;;;;7.63;2.10;;;11.30;99.90;;;;;;5073588;28;20299;-80
2022/07/08 05:14:44;;;;;;;6.67;2.37;;;11.40;99.90;;;;;;5066707;28;20204;-78
2022/07/08 05:17:12;;;;;;;8.53;2.20;;;11.40;99.90;;;;;;5062551;28;20212;-77
2022/07/08 05:19:40;;;;;;;7.27;2.47;;;11.50;99.90;;;;;;5073067;28;20223;-77
2022/07/08 05:22:10;;;;;;;7.33;2.30;;;11.50;99.90;;;;;;5048415;28;20208;-77
2022/07/08 05:24:38;;;;;;;6.27;2.20;;;11.70;99.90;;;;;;5059496;28;20219;-76
2022/07/08 05:27:07;;;;;;;7.73;2.30;;;12.10;99.90;;;;;;5073274;28;20207;-76
2022/07/08 05:29:35;;;;;;;8.23;2.13;;;12.30;99.90;;;;;;5072623;28;20254;-76
2022/07/08 05:32:03;;;;;;;10.33;2.20;;;12.60;99.90;;;;;;5072605;28;20628;-74
2022/07/08 05:34:32;;;;;;;6.70;1.90;;;12.80;99.90;;;;;;5072994;28;20711;-75
2022/07/08 05:37:00;;;;;;;8.70;2.07;;;12.90;99.90;;;;;;5073335;28;20208;-76
2022/07/08 05:39:30;;;;;;;6.40;2.07;;;13.10;99.90;;;;;;5072386;28;20712;-75
2022/07/08 05:41:58;;;;;;;7.90;2.10;;;13.10;99.90;;;;;;5072320;28;20300;-77
2022/07/08 05:44:26;;;;;;;8.67;2.13;;;13.00;99.90;;;;;;5072984;28;20250;-74
2022/07/08 05:46:54;;;;;;;6.50;1.87;;;13.10;99.90;;;;;;5072274;28;20750;-76
2022/07/08 05:49:23;;;;;;;5.93;2.13;;;13.10;99.90;;;;;;5072604;28;20226;-76
2022/07/08 05:51:51;;;;;;;7.23;2.10;;;13.30;99.90;;;;;;5070776;28;20614;-75
2022/07/08 05:54:19;;;;;;;8.03;2.00;;;13.40;99.90;;;;;;5073866;28;20303;-77
2022/07/08 05:56:49;;;;;;;6.57;1.93;;;13.60;99.90;;;;;;5075699;28;20207;-78
2022/07/08 05:59:17;;;;;;;6.97;1.93;;;14.30;99.90;;;;;;5073660;28;20235;-77
2022/07/08 06:01:45;;;;;;;7.23;1.90;;;15.20;99.90;;;;;;5070139;28;20219;-76
2022/07/08 06:04:14;;;;;;;5.80;1.80;;;16.20;99.90;;;;;;5071741;28;20247;-75
2022/07/08 06:06:42;;;;;;;6.43;1.70;;;17.80;99.90;;;;;;5073729;28;20237;-75
2022/07/08 06:09:11;;;;;;;7.07;2.07;;;18.30;99.90;;;;;;5073841;28;20204;-76
2022/07/08 06:11:39;;;;;;;4.23;1.60;;;19.10;99.90;;;;;;5073387;28;20298;-75
2022/07/08 06:14:09;;;;;;;6.40;2.00;;;19.60;99.90;;;;;;5072534;28;20301;-77
2022/07/08 06:16:37;;;;;;;7.80;1.77;;;20.70;99.90;;;;;;5073227;28;20211;-77
2022/07/08 06:19:06;;;;;;;5.93;1.40;;;21.10;99.90;;;;;;5072458;28;20298;-78
2022/07/08 06:21:34;;;;;;;7.10;1.70;;;21.30;99.90;;;;;;5072043;28;20253;-78
2022/07/08 06:24:02;;;;;;;4.30;1.57;;;21.90;99.90;;;;;;5072842;28;20227;-78
2022/07/08 06:26:30;;;;;;;5.97;1.80;;;22.50;99.90;;;;;;5071811;28;20607;-78
2022/07/08 06:28:58;;;;;;;5.90;1.80;;;22.60;99.90;;;;;;5071733;28;20254;-77
2022/07/08 06:31:28;;;;;;;3.67;1.40;;;22.50;99.90;;;;;;5071702;28;20570;-78
2022/07/08 06:33:57;;;;;;;5.43;1.60;;;22.20;99.90;;;;;;5072839;28;20241;-78
2022/07/08 06:36:26;;;;;;;4.55;1.65;;;23.20;99.40;;;;;;5072752;28;20214;-77
2022/07/08 06:38:54;;;;;;;4.32;1.48;;;22.80;98.80;;;;;;5072283;28;20613;-79
2022/07/08 06:41:30;;;;;;;4.60;1.50;;;23.40;97.30;;;;;;5071624;28;20602;-76
2022/07/08 06:43:58;;;;;;;4.68;1.38;;;23.00;96.60;;;;;;5071603;28;20226;-78
2022/07/08 06:46:28;;;;;;;5.55;1.80;;;23.00;96.60;;;;;;5071233;28;20282;-77
2022/07/08 06:48:56;;;;;;;6.22;1.65;;;23.40;95.90;;;;;;5071906;28;20317;-76
2022/07/08 06:51:25;;;;;;;5.95;1.60;;;24.30;96.10;;;;;;5071885;28;20199;-77
2022/07/08 06:56:41;;;;;;;5.43;1.63;;;23.70;95.80;;;;;;5071776;28;20635;-75
2022/07/08 06:59:09;;;;;;;3.45;1.60;;;24.50;95.40;;;;;;5071548;28;20207;-76
2022/07/08 07:01:39;;;;;;;5.35;1.60;;;24.40;94.90;;;;;;5071512;28;20262;-78
2022/07/08 07:04:09;;;;;;;5.18;1.85;;;24.60;94.20;;;;;;5063570;28;20257;-78
2022/07/08 07:06:38;;;;;;;7.18;1.60;;;25.20;92.00;;;;;;5071866;28;20287;-78
2022/07/08 07:09:07;;;;;;;5.72;1.80;;;24.60;92.80;;;;;;5063372;28;20222;-78
2022/07/08 07:11:35;;;;;;;5.43;1.63;;;24.60;92.30;;;;;;5071481;28;20592;-77
2022/07/08 07:14:03;;;;;;;7.97;1.80;;;24.50;92.20;;;;;;5072078;28;20230;-76
2022/07/08 07:16:31;;;;;;;4.53;1.60;;;23.60;93.60;;;;;;5071674;28;20231;-75
2022/07/08 07:19:01;;;;;;;5.57;1.67;;;23.00;93.90;;;;;;5071362;28;20731;-76
2022/07/08 07:21:29;;;;;;;6.47;1.77;;;23.20;94.40;;;;;;5071808;28;20343;-76
2022/07/08 07:23:58;;;;;;;6.27;1.70;;;22.70;94.70;;;;;;5072175;28;20262;-77
2022/07/08 07:26:26;;;;;;;4.37;1.57;;;22.00;95.40;;;;;;5074663;28;20261;-75
2022/07/08 07:28:54;;;;;;;6.97;1.97;;;21.10;96.20;;;;;;5076391;28;20233;-76
2022/07/08 07:31:22;;;;;;;6.80;1.90;;;19.90;98.90;;;;;;5076195;28;20210;-76
2022/07/08 07:33:51;;;;;;;6.33;2.00;;;18.90;99.90;;;;;;5075863;28;20211;-76
2022/07/08 07:36:21;;;;;;;6.37;1.80;;;18.00;99.90;;;;;;5075542;28;20257;-76
2022/07/08 07:38:49;;;;;;;4.93;1.87;;;17.50;99.90;;;;;;5075525;28;20298;-74
2022/07/08 07:41:17;;;;;;;8.40;2.20;;;17.30;99.90;;;;;;5075043;28;20318;-73
2022/07/08 07:43:45;;;;;;;7.87;1.80;;;17.80;99.90;;;;;;5075448;28;20303;-74
2022/07/08 07:46:13;;;;;;;6.40;1.90;;;18.00;99.90;;;;;;5075184;28;20227;-75
2022/07/08 07:48:42;;;;;;;6.17;1.90;;;18.00;99.90;;;;;;5074840;28;20214;-73
2022/07/08 07:51:10;;;;;;;7.27;2.07;;;17.70;99.90;;;;;;5074787;28;20271;-74
2022/07/08 07:53:40;;;;;;;7.93;2.00;;;17.60;99.90;;;;;;5074847;28;20619;-75
2022/07/08 07:56:09;;;;;;;7.17;1.60;;;17.20;99.90;;;;;;5075034;28;20246;-75
2022/07/08 07:58:38;;;;;;;7.20;1.90;;;16.80;99.90;;;;;;5074803;28;20239;-74
2022/07/08 08:01:06;;;;;;;4.70;1.90;;;16.20;99.90;;;;;;5074759;28;20621;-74
2022/07/08 08:03:34;;;;;;;6.43;1.87;;;15.70;99.90;;;;;;5074930;28;20204;-77
2022/07/08 08:06:05;;;;;;;7.77;1.80;;;15.70;99.90;;;;;;5074700;28;20215;-74
2022/07/08 08:08:33;;;;;;;7.97;1.90;;;15.70;99.90;;;;;;5074288;28;20646;-74
2022/07/08 08:11:04;;;;;;;7.53;2.00;;;15.70;99.90;;;;;;5074217;28;20737;-75
2022/07/08 08:13:32;;;;;;;7.00;2.20;;;15.80;99.90;;;;;;5074795;28;20219;-77
2022/07/08 08:16:00;;;;;;;8.57;1.90;;;15.80;99.90;;;;;;5074627;28;20215;-73
2022/07/08 08:18:29;;;;;;;7.70;1.73;;;16.10;99.90;;;;;;5074523;28;20290;-77
2022/07/08 08:20:57;;;;;;;5.20;1.70;;;16.70;99.90;;;;;;5074212;28;20242;-76
2022/07/08 08:23:26;;;;;;;6.43;1.97;;;17.10;99.90;;;;;;5074520;28;20211;-77
2022/07/08 08:25:54;;;;;;;5.87;1.90;;;18.00;99.90;;;;;;5074118;28;20211;-75
2022/07/08 08:28:24;;;;;;;5.37;1.80;;;18.70;99.90;;;;;;5074336;28;20227;-78
2022/07/08 08:30:53;;;;;;;5.77;1.70;;;19.50;99.90;;;;;;5073987;28;20195;-74
2022/07/08 08:33:21;;;;;;;6.40;2.17;;;21.20;99.90;;;;;;5073742;28;20696;-78
2022/07/08 08:35:49;;;;;;;6.73;1.67;;;22.30;99.90;;;;;;5073961;28;20234;-75
2022/07/08 08:38:18;;;;;;;7.20;1.70;;;23.20;99.90;;;;;;5073073;28;20212;-76
2022/07/08 08:40:47;;;;;;;5.93;1.70;;;23.50;99.30;;;;;;5073989;28;20283;-76
2022/07/08 08:43:15;;;;;;;5.30;1.90;;;24.60;98.90;;;;;;5074474;28;20306;-78
2022/07/08 08:45:56;;;;;;;6.35;1.77;;;24.70;95.40;;;;;;5073569;28;20273;-75
2022/07/08 08:48:26;;;;;;;4.63;1.50;;;25.30;94.50;;;;;;5073501;28;20212;-76
2022/07/08 08:50:56;;;;;;;4.95;1.70;;;24.10;95.10;;;;;;5073763;28;20208;-76
2022/07/08 08:53:27;;;;;;;7.15;1.80;;;23.30;93.90;;;;;;5074402;28;20211;-77
2022/07/08 08:55:56;;;;;;;4.13;1.87;;;22.10;96.30;;;;;;5074223;28;20207;-77
2022/07/08 08:58:25;;;;;;;5.97;1.90;;;21.10;98.40;;;;;;5074064;28;20299;-78
2022/07/08 09:00:54;;;;;;;6.67;1.90;;;19.90;99.90;;;;;;5073615;28;20277;-74
2022/07/08 09:03:24;;;;;;;9.30;1.80;;;19.10;99.90;;;;;;5073728;28;20228;-78
2022/07/08 09:05:53;;;;;;;4.90;1.70;;;18.60;99.90;;;;;;5074241;28;20199;-78
2022/07/08 09:08:21;;;;;;;5.50;1.80;;;18.30;99.90;;;;;;5073632;28;20258;-77
2022/07/08 09:10:53;;;;;;;4.47;1.50;;;18.30;99.90;;;;;;5073279;28;20669;-77
2022/07/08 09:13:23;;;;;;;5.43;1.47;;;18.10;99.90;;;;;;5073435;28;20242;-77
2022/07/08 09:15:58;;;;;;;5.17;1.53;;;18.00;99.90;;;;;;5073009;28;20238;-76
2022/07/08 09:18:31;;;;;;;4.67;1.70;;;18.20;99.90;;;;;;5073630;28;20196;-76
2022/07/08 09:21:01;;;;;;;6.57;1.63;;;18.10;99.90;;;;;;5073407;28;20731;-79
2022/07/08 09:23:30;;;;;;;4.13;1.60;;;17.90;99.90;;;;;;5073484;28;20229;-76
2022/07/08 09:26:01;;;;;;;4.37;1.50;;;17.70;99.90;;;;;;5073722;28;20527;-77
2022/07/08 09:28:32;;;;;;;3.77;1.40;;;17.70;99.90;;;;;;5073593;28;20657;-74
2022/07/08 09:31:02;;;;;;;4.53;1.53;;;17.70;99.90;;;;;;5073552;28;20230;-77
2022/07/08 09:33:32;;;;;;;3.67;1.53;;;17.80;99.90;;;;;;5074437;28;20204;-78
2022/07/08 09:36:02;;;;;;;4.13;1.50;;;17.80;99.90;;;;;;5073354;28;20211;-76
2022/07/08 09:38:34;;;;;;;5.37;1.70;;;17.90;99.90;;;;;;5073547;28;20215;-77
2022/07/08 09:41:05;;;;;;;4.83;1.77;;;18.00;99.90;;;;;;5074264;28;20219;-76
2022/07/08 09:43:34;;;;;;;5.40;1.40;;;18.20;99.90;;;;;;5079473;28;20757;-77
2022/07/08 09:46:05;;;;;;;4.73;1.40;;;18.40;99.90;;;;;;5075863;28;20772;-76
2022/07/08 09:48:35;;;;;;;5.70;1.40;;;18.60;99.90;;;;;;5067265;28;20290;-75
2022/07/08 09:51:07;;;;;;;4.83;1.60;;;18.50;99.90;;;;;;5053235;28;20247;-77
2022/07/08 09:53:37;;;;;;;6.00;1.70;;;18.90;99.90;;;;;;5053197;28;20199;-76
2022/07/08 09:56:07;;;;;;;4.57;1.57;;;19.70;99.90;;;;;;5071250;28;20262;-75
2022/07/08 09:58:36;;;;;;;4.80;1.50;;;19.90;99.90;;;;;;5072727;28;20691;-79
2022/07/08 10:01:06;;;;;;;4.60;1.43;;;19.70;99.90;;;;;;5072816;28;20227;-75
2022/07/08 10:03:36;;;;;;;4.80;1.50;;;19.60;99.90;;;;;;5073516;28;20245;-76
2022/07/08 10:06:05;;;;;;;3.57;1.60;;;19.10;99.90;;;;;;5072928;28;20231;-77
2022/07/08 10:08:35;;;;;;;5.87;1.80;;;18.90;99.90;;;;;;5073341;28;20207;-78
2022/07/08 10:11:08;;;;;;;4.73;1.60;;;18.50;99.90;;;;;;5072451;28;20238;-78
2022/07/08 10:13:38;;;;;;;6.37;1.87;;;18.30;99.90;;;;;;5072885;28;20266;-76
2022/07/08 10:16:10;;;;;;;8.07;1.80;;;18.10;99.90;;;;;;5072844;28;20250;-77
2022/07/08 10:18:43;;;;;;;5.47;1.73;;;18.00;99.90;;;;;;5072418;28;20191;-78
2022/07/08 10:21:14;;;;;;;6.07;1.70;;;18.40;99.90;;;;;;5072354;28;20737;-77
2022/07/08 10:23:46;;;;;;;6.43;1.60;;;18.90;99.90;;;;;;5072415;28;20349;-79
2022/07/08 10:26:19;;;;;;;4.53;1.37;;;19.10;99.90;;;;;;5072543;28;20215;-79
2022/07/08 10:29:01;;;;;;;4.80;1.80;;;18.80;99.90;;;;;;5071925;28;20286;-77
2022/07/08 10:31:30;;;;;;;5.07;1.70;;;18.60;99.90;;;;;;5071336;28;20712;-76
2022/07/08 10:34:03;;;;;;;6.10;1.90;;;18.50;99.90;;;;;;5072225;28;20286;-79
2022/07/08 10:36:45;;;;;;;4.23;1.67;;;18.30;99.90;;;;;;5072332;28;20207;-79
2022/07/08 10:39:14;;;;;;;8.27;1.80;;;18.20;99.90;;;;;;5072015;28;20277;-75
2022/07/08 10:41:57;;;;;;;4.87;1.60;;;18.40;99.90;;;;;;5071865;28;20708;-74
2022/07/08 10:44:52;;;;;;;4.87;1.60;;;18.70;99.90;;;;;;5056412;28;20323;-76
2022/07/08 10:47:28;;;;;;;6.47;1.50;;;19.00;99.90;;;;;;5052076;28;20239;-77
2022/07/08 10:50:06;;;;;;;4.97;1.80;;;19.20;99.90;;;;;;5052347;28;20200;-75
2022/07/08 10:52:39;;;;;;;5.13;1.60;;;19.40;99.90;;;;;;5052836;28;20234;-76
2022/07/08 10:55:10;;;;;;;5.53;1.77;;;19.50;99.90;;;;;;5052967;28;20258;-76
2022/07/08 10:57:38;;;;;;;4.87;1.60;;;19.60;99.90;;;;;;5053903;28;20216;-73
2022/07/08 11:00:09;;;;;;;4.50;1.70;;;19.90;99.90;;;;;;5052893;28;20240;-73
2022/07/08 11:02:42;;;;;;;3.37;1.70;;;20.10;99.90;;;;;;5054152;28;20216;-75
2022/07/08 11:05:36;;;;;;;5.57;1.80;;;20.10;99.90;;;;;;5053682;28;20623;-74
2022/07/08 11:08:28;;;;;;;4.80;1.80;;;19.80;99.90;;;;;;5053370;28;20212;-76
2022/07/08 11:10:56;;;;;;;4.60;1.80;;;19.60;99.90;;;;;;5043755;28;20212;-76
2022/07/08 11:13:26;;;;;;;6.03;1.93;;;19.50;99.90;;;;;;5052847;28;20208;-78
2022/07/08 11:15:59;;;;;;;4.33;1.50;;;20.10;99.90;;;;;;5052762;28;20214;-76
2022/07/08 11:18:28;;;;;;;4.13;1.67;;;20.20;99.90;;;;;;5058059;28;20218;-77
2022/07/08 11:21:01;;;;;;;4.67;1.60;;;20.10;99.90;;;;;;5072222;28;20261;-77
2022/07/08 11:23:30;;;;;;;5.73;1.80;;;20.50;99.90;;;;;;5072537;28;20228;-75
2022/07/08 11:26:00;;;;;;;4.27;1.67;;;20.80;99.90;;;;;;5072066;28;20231;-76
2022/07/08 11:28:29;;;;;;;4.70;1.67;;;20.80;99.90;;;;;;5071557;28;20219;-76
2022/07/08 11:30:57;;;;;;;5.47;1.43;;;20.80;99.50;;;;;;5070951;28;20246;-78
2022/07/08 11:33:39;;;;;;;6.50;1.97;;;21.10;99.90;;;;;;5071750;28;20203;-76
2022/07/08 11:36:19;;;;;;;5.80;1.93;;;21.10;99.30;;;;;;5071391;28;20242;-77
2022/07/08 11:38:48;;;;;;;5.23;1.73;;;21.00;97.30;;;;;;5071241;28;20238;-74
2022/07/08 11:41:19;;;;;;;3.73;1.47;;;20.80;98.10;;;;;;5071315;28;20761;-74
2022/07/08 11:43:49;;;;;;;4.23;1.70;;;20.60;98.80;;;;;;5071316;28;20211;-77
2022/07/08 11:46:19;;;;;;;4.27;1.70;;;20.60;98.70;;;;;;5071402;28;20231;-77
2022/07/08 11:48:47;;;;;;;6.33;1.70;;;20.30;99.50;;;;;;5071185;28;20207;-75
2022/07/08 11:51:17;;;;;;;3.80;1.70;;;19.60;99.90;;;;;;5071411;28;20247;-75
2022/07/08 11:53:46;;;;;;;3.53;1.70;;;19.20;99.90;;;;;;5072166;28;20273;-75
2022/07/08 11:56:14;;;;;;;4.17;1.50;;;18.80;99.90;;;;;;5077639;28;20244;-76
2022/07/08 11:58:43;;;;;;;6.77;2.00;;;18.80;99.90;;;;;;5070665;28;20630;-75
2022/07/08 12:01:11;;;;;;;4.70;1.73;;;19.30;99.90;;;;;;5071178;28;20611;-76
2022/07/08 12:03:40;;;;;;;5.30;1.90;;;19.80;99.90;;;;;;5071106;28;20318;-74
2022/07/08 12:06:08;;;;;;;8.37;1.87;;;19.90;99.90;;;;;;5071289;28;20715;-76
2022/07/08 12:08:43;;;;;;;7.00;1.80;;;19.80;99.90;;;;;;5071200;28;20208;-78
2022/07/08 12:11:13;;;;;;;4.00;1.70;;;20.30;99.90;;;;;;5071793;28;20238;-76
2022/07/08 12:13:45;;;;;;;7.70;1.80;;;20.50;99.90;;;;;;5074847;28;20211;-76
2022/07/08 12:16:28;;;;;;;5.20;1.80;;;20.60;99.90;;;;;;5067678;28;20294;-75
2022/07/08 12:18:57;;;;;;;7.17;1.60;;;20.50;98.10;;;;;;5054851;28;20197;-77
2022/07/08 12:21:26;;;;;;;6.37;1.67;;;20.50;99.90;;;;;;5054624;28;20215;-75
2022/07/08 12:23:57;;;;;;;3.23;1.33;;;20.00;98.60;;;;;;5054614;28;20219;-78
2022/07/08 12:26:26;;;;;;;5.47;1.60;;;20.10;99.90;;;;;;5054711;28;20200;-77
2022/07/08 12:28:55;;;;;;;4.57;1.50;;;20.00;99.90;;;;;;5055002;28;20212;-78
2022/07/08 12:31:41;;;;;;;5.60;1.40;;;20.00;99.90;;;;;;5054526;28;20212;-77
2022/07/08 12:34:15;;;;;;;5.97;1.50;;;20.00;99.90;;;;;;5055079;28;20294;-75
2022/07/08 12:36:44;;;;;;;6.33;1.77;;;20.30;99.90;;;;;;5054659;28;20646;-76
2022/07/08 12:39:15;;;;;;;8.73;1.77;;;20.30;99.90;;;;;;5055223;28;20216;-77
2022/07/08 12:41:46;;;;;;;5.33;1.80;;;20.30;99.90;;;;;;5054809;28;20239;-78
2022/07/08 12:44:49;;;;;;;6.03;1.50;;;20.10;99.90;;;;;;5054847;28;20286;-78
2022/07/08 12:47:17;;;;;;;4.73;1.60;;;20.00;99.70;;;;;;4973233;28;20281;-78
2022/07/08 12:49:46;;;;;;;5.90;1.63;;;20.20;99.90;;;;;;5039458;28;20729;-78
2022/07/08 12:52:17;;;;;;;5.23;1.73;;;20.00;99.90;;;;;;5054722;28;20227;-77
2022/07/08 12:54:47;;;;;;;4.93;1.50;;;20.30;99.90;;;;;;5054236;28;20212;-77
2022/07/08 12:57:15;;;;;;;4.73;1.50;;;20.10;98.00;;;;;;5055103;28;20254;-77
2022/07/08 12:59:43;;;;;;;5.13;1.57;;;20.10;99.30;;;;;;5055144;28;20274;-77
2022/07/08 13:02:12;;;;;;;5.40;1.40;;;20.30;99.80;;;;;;5055357;28;20291;-78
2022/07/08 13:04:41;;;;;;;4.10;1.50;;;20.60;98.80;;;;;;5054229;28;20263;-79
2022/07/08 13:07:12;;;;;;;6.17;1.70;;;20.20;98.10;;;;;;5046194;28;20697;-79